Time;durP1;ratioP1;P1;durP2;ratioP2;P2;SDS_P1;SDS_P2;PMS_P1;PMS_P2;Temp;Humidity;BMP_temperature;BMP_pressure;BME280_temperature;BME280_humidity;BME280_pressure;Samples;Min_cycle;Max_cycle;Signal;HPM_P1;HPM_P2
2021/07/01 18:36:23;;;;;;;2.55;1.10;;;23.80;99.90;;;;;;5108217;27;20702;-65
2021/07/01 18:38:49;;;;;;;1.27;0.93;;;23.20;99.90;;;;;;5065107;28;20041;-66
2021/07/01 18:41:15;;;;;;;1.95;1.00;;;21.80;99.90;;;;;;5084388;28;20075;-66
2021/07/01 18:43:43;;;;;;;0.60;0.60;;;21.60;99.90;;;;;;5065072;28;20071;-66
2021/07/01 18:46:13;;;;;;;4.03;0.73;;;21.60;99.90;;;;;;5065935;28;20036;-66
2021/07/01 18:48:43;;;;;;;0.90;0.80;;;21.50;99.90;;;;;;5074559;28;20143;-66
2021/07/01 18:51:10;;;;;;;1.05;0.88;;;21.30;99.90;;;;;;5073122;28;20164;-66
2021/07/01 18:53:37;;;;;;;3.55;0.90;;;21.20;99.90;;;;;;5071691;28;20041;-67
2021/07/01 18:56:03;;;;;;;6.20;0.70;;;21.70;99.90;;;;;;5061384;28;20079;-67
2021/07/01 18:58:31;;;;;;;0.77;0.50;;;21.80;99.90;;;;;;5066035;27;20048;-67
2021/07/01 19:00:58;;;;;;;0.88;0.68;;;21.80;99.90;;;;;;5062990;28;20067;-67
2021/07/01 19:03:23;;;;;;;1.23;0.70;;;21.90;99.90;;;;;;5060874;28;20048;-68
2021/07/01 19:05:49;;;;;;;1.48;0.70;;;22.10;99.90;;;;;;5063565;28;20107;-64
2021/07/01 19:08:15;;;;;;;2.65;0.70;;;21.90;99.90;;;;;;5081896;28;20044;-67
2021/07/01 19:10:40;;;;;;;1.48;1.38;;;22.20;99.90;;;;;;5074011;28;20499;-67
2021/07/01 19:13:06;;;;;;;4.55;3.92;;;22.30;99.90;;;;;;5092208;28;20047;-68
2021/07/01 19:15:32;;;;;;;7.60;4.88;;;22.20;99.90;;;;;;5073504;28;20058;-67
2021/07/01 19:17:57;;;;;;;8.48;6.30;;;22.50;99.90;;;;;;5063079;28;20090;-67
2021/07/01 19:20:23;;;;;;;58.60;40.50;;;22.50;99.90;;;;;;5043852;28;20051;-67
2021/07/01 19:22:49;;;;;;;13.27;8.18;;;22.50;99.90;;;;;;5064819;28;20044;-67
2021/07/01 19:25:15;;;;;;;4.18;2.83;;;22.70;99.90;;;;;;5071435;27;20463;-68
2021/07/01 19:27:41;;;;;;;3.38;2.58;;;23.00;99.90;;;;;;5074994;28;20040;-68
2021/07/01 19:30:13;;;;;;;4.07;1.83;;;22.90;99.90;;;;;;5078137;28;20094;-68
2021/07/01 19:32:39;;;;;;;1.95;1.30;;;23.00;99.90;;;;;;5070713;28;20036;-68
2021/07/01 19:35:05;;;;;;;1.77;1.00;;;23.20;99.90;;;;;;5064690;28;22296;-67
2021/07/01 19:37:34;;;;;;;2.90;1.00;;;23.10;99.90;;;;;;5075635;28;20028;-67
2021/07/01 19:40:03;;;;;;;1.42;1.33;;;23.20;99.90;;;;;;5083771;28;20035;-67
2021/07/01 19:42:30;;;;;;;1.40;0.82;;;23.30;99.90;;;;;;5067622;28;20043;-68
2021/07/01 19:44:55;;;;;;;4.35;1.25;;;23.20;99.90;;;;;;5080589;28;20127;-68
2021/07/01 19:47:21;;;;;;;1.52;1.15;;;23.50;99.90;;;;;;5058930;28;20565;-68
2021/07/01 19:49:47;;;;;;;2.80;1.05;;;23.40;99.90;;;;;;5065497;28;20045;-68
2021/07/01 19:52:14;;;;;;;0.90;0.90;;;23.60;99.90;;;;;;5037962;28;21775;-67
2021/07/01 19:54:41;;;;;;;1.90;1.33;;;23.50;99.90;;;;;;5048475;28;20052;-67
2021/07/01 19:57:07;;;;;;;1.02;0.85;;;23.70;99.90;;;;;;5044560;28;20121;-69
2021/07/01 19:59:42;;;;;;;1.58;1.13;;;23.80;99.90;;;;;;5051657;28;20044;-68
2021/07/01 20:02:31;;;;;;;3.95;1.10;;;23.80;99.90;;;;;;5063962;28;20049;-67
2021/07/01 20:04:56;;;;;;;1.05;1.05;;;24.00;99.90;;;;;;5028384;28;20040;-63
2021/07/01 20:07:22;;;;;;;1.95;0.80;;;23.80;99.90;;;;;;5061259;28;20118;-62
2021/07/01 20:09:48;;;;;;;1.50;0.90;;;24.00;99.90;;;;;;5047625;28;20033;-69
2021/07/01 20:12:14;;;;;;;9.45;8.60;;;24.30;99.90;;;;;;5046877;28;20490;-71
2021/07/01 20:14:40;;;;;;;5.25;4.80;;;24.30;99.90;;;;;;5057422;28;20107;-70
2021/07/01 20:17:06;;;;;;;2.72;1.60;;;24.60;99.90;;;;;;5058393;28;20044;-68
2021/07/01 20:19:32;;;;;;;2.20;1.45;;;24.70;99.90;;;;;;5076810;28;20486;-67
2021/07/01 20:21:58;;;;;;;4.05;1.85;;;24.90;99.90;;;;;;5049763;28;20087;-68
2021/07/01 20:24:24;;;;;;;3.63;2.13;;;24.90;99.90;;;;;;5047943;28;20049;-67
2021/07/01 20:26:49;;;;;;;3.47;1.88;;;25.30;99.90;;;;;;5053962;28;20035;-60
2021/07/01 20:29:16;;;;;;;3.30;1.55;;;25.30;98.50;;;;;;5049160;28;20040;-67
2021/07/01 20:31:43;;;;;;;5.35;2.45;;;25.60;91.20;;;;;;5056352;28;20032;-67
2021/07/01 20:34:09;;;;;;;5.85;1.70;;;25.70;99.90;;;;;;5044118;28;20041;-68
2021/07/01 20:36:35;;;;;;;3.55;1.65;;;25.80;91.80;;;;;;5055415;28;20040;-68
2021/07/01 20:39:02;;;;;;;6.57;1.85;;;26.00;97.60;;;;;;5053647;28;20044;-69
2021/07/01 20:41:28;;;;;;;4.30;2.05;;;26.00;66.30;;;;;;5065290;28;20033;-68
2021/07/01 20:43:54;;;;;;;5.70;2.03;;;26.10;68.60;;;;;;5057093;28;20862;-68
2021/07/01 20:46:20;;;;;;;4.47;1.98;;;26.30;77.50;;;;;;5068934;28;20047;-66
2021/07/01 20:48:46;;;;;;;3.00;1.75;;;26.40;61.90;;;;;;5060895;28;20041;-68
2021/07/01 20:51:12;;;;;;;4.15;2.00;;;26.40;70.00;;;;;;5050765;28;20048;-68
2021/07/01 20:53:38;;;;;;;4.68;1.73;;;26.50;63.70;;;;;;5049912;28;20064;-69
2021/07/01 20:56:04;;;;;;;5.43;1.92;;;26.40;70.70;;;;;;5055456;28;20115;-69
2021/07/01 20:58:30;;;;;;;3.53;1.23;;;26.50;57.40;;;;;;5059309;28;20033;-68
2021/07/01 21:00:58;;;;;;;3.80;1.48;;;26.50;66.80;;;;;;5051587;28;20098;-68
2021/07/01 21:03:23;;;;;;;5.07;1.67;;;26.50;65.40;;;;;;5051900;28;20043;-68
2021/07/01 21:05:51;;;;;;;3.63;1.90;;;26.60;65.60;;;;;;5041722;28;20032;-67
2021/07/01 21:08:23;;;;;;;4.82;1.70;;;26.60;62.20;;;;;;5059253;28;20121;-67
2021/07/01 21:10:49;;;;;;;3.20;1.55;;;26.70;59.40;;;;;;5056285;28;20047;-67
2021/07/01 21:13:15;;;;;;;6.38;1.85;;;26.70;60.10;;;;;;5037881;28;20041;-67
2021/07/01 21:15:43;;;;;;;3.88;2.03;;;26.70;61.30;;;;;;5048559;28;20072;-67
2021/07/01 21:18:11;;;;;;;5.00;1.35;;;26.70;53.50;;;;;;5049682;28;20032;-68
2021/07/01 21:20:38;;;;;;;5.28;1.92;;;26.80;52.50;;;;;;5059384;28;20044;-67
2021/07/01 21:23:04;;;;;;;4.50;1.90;;;26.80;53.20;;;;;;5067009;28;20055;-67
2021/07/01 21:25:30;;;;;;;3.10;1.50;;;26.80;52.10;;;;;;5039848;28;20073;-67
2021/07/01 21:27:58;;;;;;;4.68;1.80;;;26.80;53.10;;;;;;5053149;28;20043;-68
2021/07/01 21:30:24;;;;;;;4.40;1.75;;;26.80;52.30;;;;;;5051268;28;20033;-68
2021/07/01 21:32:49;;;;;;;8.38;1.77;;;26.70;52.70;;;;;;5046597;28;20104;-65
2021/07/01 21:35:15;;;;;;;7.57;2.67;;;26.70;52.30;;;;;;5043127;28;20468;-68
2021/07/01 21:37:44;;;;;;;5.20;2.13;;;26.60;52.40;;;;;;5043966;28;20049;-68
2021/07/01 21:40:10;;;;;;;2.72;1.77;;;26.60;51.60;;;;;;5043912;28;20398;-68
2021/07/01 21:42:36;;;;;;;4.60;1.83;;;26.70;52.90;;;;;;5056838;28;20075;-68
2021/07/01 21:45:06;;;;;;;6.40;2.08;;;26.60;52.40;;;;;;5061880;28;20041;-67
2021/07/01 21:47:34;;;;;;;5.63;2.22;;;26.60;53.40;;;;;;5065133;28;20496;-67
2021/07/01 21:50:02;;;;;;;6.97;2.13;;;26.60;53.60;;;;;;5060375;28;20033;-67
2021/07/01 21:52:28;;;;;;;4.88;2.35;;;26.50;51.20;;;;;;5040285;28;20119;-68
2021/07/01 21:54:54;;;;;;;5.40;2.15;;;26.50;53.60;;;;;;5057780;28;20120;-69
2021/07/01 21:57:22;;;;;;;4.03;2.00;;;26.50;53.80;;;;;;5052128;28;20037;-65
2021/07/01 21:59:50;;;;;;;8.55;2.63;;;26.50;54.00;;;;;;5052752;28;20033;-68
2021/07/01 22:02:16;;;;;;;4.68;2.47;;;26.60;52.90;;;;;;5055807;28;20120;-68
2021/07/01 22:04:42;;;;;;;7.95;2.47;;;26.60;54.40;;;;;;5061850;28;20040;-68
2021/07/01 22:07:08;;;;;;;5.68;2.67;;;26.40;53.20;;;;;;5051222;28;20055;-67
2021/07/01 22:09:34;;;;;;;5.15;2.10;;;26.40;53.40;;;;;;5067133;28;20375;-68
2021/07/01 22:12:04;;;;;;;4.22;2.40;;;26.30;52.20;;;;;;5066962;28;20101;-67
2021/07/01 22:14:36;;;;;;;4.53;2.08;;;26.40;51.50;;;;;;5061002;28;20064;-67
2021/07/01 22:17:04;;;;;;;7.38;2.60;;;26.30;53.30;;;;;;5059449;28;20076;-67
2021/07/01 22:21:59;;;;;;;5.30;2.33;;;26.30;52.50;;;;;;5058283;28;20407;-67
2021/07/01 22:24:25;;;;;;;4.72;1.85;;;26.30;52.00;;;;;;5055436;28;20035;-67
2021/07/01 22:26:51;;;;;;;6.53;2.35;;;26.30;53.20;;;;;;5058541;28;20040;-68
2021/07/01 22:29:17;;;;;;;3.65;1.90;;;26.20;52.90;;;;;;5046125;28;20036;-68
2021/07/01 22:31:45;;;;;;;7.43;2.67;;;26.20;52.80;;;;;;5070103;28;20036;-68
2021/07/01 22:34:10;;;;;;;3.92;2.20;;;26.30;52.80;;;;;;5061526;28;20157;-68
2021/07/01 22:36:42;;;;;;;5.65;1.63;;;26.30;53.10;;;;;;5061172;28;20037;-67
2021/07/01 22:39:09;;;;;;;4.07;1.98;;;26.20;53.20;;;;;;5042330;28;20044;-67
2021/07/01 22:41:35;;;;;;;4.05;1.95;;;26.10;52.50;;;;;;5052655;28;20045;-68
2021/07/01 22:44:01;;;;;;;3.92;2.50;;;26.10;52.60;;;;;;5055953;28;20037;-67
2021/07/01 22:46:27;;;;;;;6.57;2.25;;;26.10;53.80;;;;;;5056301;28;20064;-68
2021/07/01 22:48:53;;;;;;;6.10;2.42;;;26.00;53.70;;;;;;5040339;28;20060;-67
2021/07/01 22:51:19;;;;;;;3.95;2.08;;;26.00;53.20;;;;;;5064515;28;20047;-68
2021/07/01 22:53:45;;;;;;;3.17;1.40;;;26.00;52.70;;;;;;5056181;28;20036;-67
2021/07/01 22:56:10;;;;;;;3.53;1.52;;;26.00;52.70;;;;;;5060388;28;20057;-68
2021/07/01 22:58:36;;;;;;;5.13;1.90;;;26.00;53.00;;;;;;5045647;28;20398;-68
2021/07/01 23:01:02;;;;;;;2.90;1.80;;;25.90;51.00;;;;;;5043308;28;20033;-68
2021/07/01 23:03:28;;;;;;;6.72;2.28;;;25.90;51.70;;;;;;5048548;28;20102;-67
2021/07/01 23:05:54;;;;;;;3.90;1.80;;;26.00;52.40;;;;;;5049229;28;20564;-68
2021/07/01 23:08:20;;;;;;;4.40;1.80;;;25.90;52.40;;;;;;5060165;28;20094;-68
2021/07/01 23:10:45;;;;;;;5.22;1.90;;;25.80;52.70;;;;;;5060628;28;20032;-67
2021/07/01 23:13:11;;;;;;;8.43;2.00;;;25.80;52.90;;;;;;5049549;28;20511;-68
2021/07/01 23:15:38;;;;;;;4.10;1.45;;;25.80;52.70;;;;;;5043632;28;20102;-68
2021/07/01 23:18:05;;;;;;;7.70;1.92;;;25.70;52.10;;;;;;5068664;28;20113;-68
2021/07/01 23:20:31;;;;;;;4.90;1.63;;;25.60;51.50;;;;;;5063605;28;20487;-67
2021/07/01 23:22:57;;;;;;;4.68;1.83;;;25.60;52.20;;;;;;5062841;28;20041;-67
2021/07/01 23:25:23;;;;;;;6.93;1.85;;;25.60;52.30;;;;;;5050134;28;20030;-67
2021/07/01 23:27:49;;;;;;;3.95;1.45;;;25.60;52.40;;;;;;5056890;28;20029;-68
2021/07/01 23:30:15;;;;;;;4.78;1.75;;;25.60;52.60;;;;;;5055252;28;20104;-68
2021/07/01 23:32:41;;;;;;;3.92;1.60;;;25.50;50.40;;;;;;5064012;28;20095;-67
2021/07/01 23:35:09;;;;;;;5.82;1.75;;;25.50;51.20;;;;;;5051562;28;20464;-68
2021/07/01 23:37:36;;;;;;;8.30;2.47;;;25.50;51.10;;;;;;5049854;28;20037;-68
2021/07/01 23:40:06;;;;;;;7.75;1.90;;;25.50;51.00;;;;;;5064390;28;20076;-68
2021/07/01 23:42:31;;;;;;;3.67;1.45;;;25.50;50.10;;;;;;5046672;28;20500;-68
2021/07/01 23:44:57;;;;;;;1.88;1.20;;;25.50;50.90;;;;;;5078955;28;20043;-68
2021/07/01 23:47:23;;;;;;;2.03;1.20;;;25.50;49.70;;;;;;5057918;28;20144;-68
2021/07/01 23:49:48;;;;;;;3.50;1.33;;;25.50;50.00;;;;;;5063894;28;20045;-69
2021/07/01 23:52:14;;;;;;;1.55;1.30;;;25.40;48.70;;;;;;5048953;28;20480;-68
2021/07/01 23:54:40;;;;;;;4.80;1.45;;;25.40;47.90;;;;;;5059806;28;20052;-68
2021/07/01 23:57:06;;;;;;;2.80;1.08;;;25.40;47.30;;;;;;5053761;28;20055;-67
2021/07/01 23:59:32;;;;;;;2.50;1.13;;;25.30;48.50;;;;;;5056861;28;20036;-68
